Terminal Aerodrome Forecast
Issued by NWS

Home | Current Version | Previous Version | Text Only | Print | Product List | Glossary On
Versions: 1 2 3 4 5 6 7 8 9 10 11 12 13 14 15 16 17
000
FTUS46 KPDT 032320
TAFBDN
TAF
KBDN 032320Z 0400/0424 35008KT P6SM SCT070 BKN250
     FM040200 32008KT P6SM SCT050 BKN250
     FM040400 20010KT P6SM VCSH BKN050 BKN100
     FM040800 22010KT P6SM -RASN BKN020 OVC050
     FM041500 22010KT P6SM -RA BKN020 OVC040
     FM042000 32010KT P6SM VCSH BKN030 BKN070=

USA.gov is the U.S. government's official web portal to all federal, state and local government web resources and services.